Hlavní strana
METAR-TAF:

METAR-TAF

Letiště :

Piacenza, Itálie

zeměpisná šířka: 44-55N, zeměpisná délka: 009-44E, výška: 134 m

Aktuální stav počasí

Zpráva byla vytvořena před 1 hodinou a 7 minutami, v 13:55 UTC
Severoseverozápadní vítr 2 kt
Teplota -1°C
Vlhkost vzduchu 100%
Tlak 1027 hPa
Viditelnost: 0200 m
mlha

METAR: LIMS 181355Z 34002KT 0200 R30/0250 R12/0225 FG VV001 M01/M01 Q1027

Čas: 16:02 (15:02 UTC)


TAF: chybějící

Stav a předpovědi počasí z více než 4 000 letišť (zprávy METAR a TAF).

Červené a žluté tečky na mapě představují dostupné meteorologické stanice.

Když kurzor umístíte na tečku, zobrazí se název stanice.

Pak kliknutím zobrazíte stav a předpověď počasí.

Chcete-li změnit mapu, kliknutím na zelené tlačítko se znaménkem +mapu přiblížíte, kliknutím na zelené tlačítko se znaménkem – mapu oddálíte a kliknutím na zelené šipky přejdete na sousední mapy.


METAR-TAF: